Copper Creek, Canada
Current Conditions -  °F | °C
As of 7:00 AM on Saturday 20 Dec 2014 (Local Time) from CYKA Reporting Station
Overcast Overcast  
Wind Chill: 31°   Ceiling: 8700
Heat Index: 37°   Visibility: 40mi
Dew Point: 30°   Wind: 8mph
Humidity: 75%   Direction: 110°ESE
Pressure: 29.72"   Gusts: NA
Location:  50.8°N, 120.76°W
Report Text: CYKA 201500Z 11007KT 40SM FEW048 BKN087 OVC110 03/M01 A2972 RMK SC1AC6AC1 SLP079
Loading
Personal Weather Stations






























Interactive Weather Map New forecast layout! Learn more

10-Day Weather Forecast

Advertisements
Track Severe Weather on mobile